• Join FlightAware (Why Join?)
  • Login
  • US Flag 
Trick or treat! (Boo!!) 
09:45AM EDT


 

Airport Tracker/Info


-or-


 

Live Flight TrackerFlight Track Log ✈ CTL18 ✈ 21-May-2013 ✈ KMBS - KYIP

Flight Track Log - Related Links

Times and Time Zones

All times are in EDT time to prevent confusion due to time zone crossing. See the CTL18 flight status page for this flight to view local times or setup timezone preferences in your user account.

Time Position Orientation Groundspeed Altitude Reporting Facility
EDT Latitude Longitude Course Direction KTS MPH feet Rate Location/Type
07:50PM 43.3904 -84.0180 160° South  Level Estimated
07:51PM 43.3637 -83.9994 153° Southeast  Level FlightAware Approximate
07:52PM 43.3371 -83.9809 153° Southeast  Level FlightAware Approximate
07:53PM 43.3085 -83.9689 160° South  Level Estimated
07:54PM 43.2809 -83.9532 157° South  Level FlightAware Approximate
07:55PM 43.2533 -83.9375 157° South  Level FlightAware Approximate
07:56PM 43.2246 -83.9258 163° South  Level Estimated
07:57PM 43.1964 -83.9124 161° South  Level FlightAware Approximate
07:58PM 43.1682 -83.8990 161° South  Level FlightAware Approximate
07:58PM 43.0003 -83.8281 160° South 165 190 5,100  Level Cleveland Center
07:58PM 42.9797 -83.8156 156° South 165 190 5,000 -120 Descending Cleveland Center
07:59PM 43.1399 -83.8856 161° South  Level FlightAware Approximate
07:59PM 42.9386 -83.7936 159° South 161 185 5,000  Level Cleveland Center
08:00PM 43.1113 -83.8741 160° South  Level Estimated
08:00PM 42.8975 -83.7717 159° South 159 183 5,000  Level Cleveland Center
08:01PM 43.0832 -83.8599 160° South  Level FlightAware Approximate
08:01PM 42.8522 -83.7525 163° South 159 183 5,100  Level Cleveland Center
08:02PM 43.0552 -83.8456 160° South  Level FlightAware Approximate
08:02PM 42.8108 -83.7389 166° South 158 182 5,100  Level Cleveland Center
08:03PM 43.0272 -83.8314 160° South  Level FlightAware Approximate
08:03PM 42.7694 -83.7256 167° South 157 181 5,000  Level Cleveland Center
08:04PM 42.7261 -83.7092 164° South 160 184 5,000 -180 Level Cleveland Center
08:05PM 42.6767 -83.6928 166° South 166 191 4,700 -240 Descending Cleveland Center
08:06PM 42.6375 -83.6794 166° South 169 194 4,600 -240 Descending Cleveland Center
08:08PM 42.5989 -83.6595 159° South  Level FlightAware Approximate
08:08PM 42.5383 -83.6436 159° South 174 200 4,100  Level Cleveland Center
08:09PM 42.4992 -83.6275 163° South 169 194 3,900 -300 Descending Cleveland Center
08:10PM 42.4475 -83.6081 164° South 170 196 3,600 -300 Descending Cleveland Center
08:11PM 42.4000 -83.5892 164° South 173 199 3,300 -300 Descending Cleveland Center
08:12PM 42.3569 -83.5644 157° South 170 196 3,000 -540 Descending Cleveland Center
08:14PM 42.3014 -83.5339 158° South 177 204 2,100 -720 Descending Cleveland Center
08:14PM 42.2706 -83.5156 156° South 157 181 1,600 -660 Descending Cleveland Center
08:16PM 42.2352 -83.5176 160° South  Level FlightAware Approximate